sensor_id;sensor_type;location;lat;lon;timestamp;P1;durP1;ratioP1;P2;durP2;ratioP2
27489;SDS011;14925;51.026;13.752;2023-08-06T00:02:02;18.02;;;13.23;;
27489;SDS011;14925;51.026;13.752;2023-08-06T00:04:28;12.45;;;10.00;;
27489;SDS011;14925;51.026;13.752;2023-08-06T00:06:53;18.15;;;13.50;;
27489;SDS011;14925;51.026;13.752;2023-08-06T00:09:18;14.45;;;11.73;;
27489;SDS011;14925;51.026;13.752;2023-08-06T00:11:44;14.88;;;10.90;;
27489;SDS011;14925;51.026;13.752;2023-08-06T00:14:11;16.98;;;12.98;;
27489;SDS011;14925;51.026;13.752;2023-08-06T00:16:37;15.55;;;11.60;;
27489;SDS011;14925;51.026;13.752;2023-08-06T00:19:02;16.40;;;11.80;;
27489;SDS011;14925;51.026;13.752;2023-08-06T00:21:28;16.40;;;13.48;;
27489;SDS011;14925;51.026;13.752;2023-08-06T00:23:53;16.48;;;11.55;;
27489;SDS011;14925;51.026;13.752;2023-08-06T00:26:18;20.13;;;15.60;;
27489;SDS011;14925;51.026;13.752;2023-08-06T00:28:44;12.50;;;11.20;;
27489;SDS011;14925;51.026;13.752;2023-08-06T00:31:10;17.77;;;13.00;;
27489;SDS011;14925;51.026;13.752;2023-08-06T00:33:35;15.07;;;11.32;;
27489;SDS011;14925;51.026;13.752;2023-08-06T00:36:01;15.20;;;12.23;;
27489;SDS011;14925;51.026;13.752;2023-08-06T00:38:29;16.08;;;11.50;;
27489;SDS011;14925;51.026;13.752;2023-08-06T00:40:54;17.20;;;14.18;;
27489;SDS011;14925;51.026;13.752;2023-08-06T00:43:20;21.48;;;15.15;;
27489;SDS011;14925;51.026;13.752;2023-08-06T00:45:45;17.83;;;13.95;;
27489;SDS011;14925;51.026;13.752;2023-08-06T00:48:11;19.20;;;15.30;;
27489;SDS011;14925;51.026;13.752;2023-08-06T00:50:36;22.02;;;15.32;;
27489;SDS011;14925;51.026;13.752;2023-08-06T00:53:01;13.25;;;11.68;;
27489;SDS011;14925;51.026;13.752;2023-08-06T00:55:27;12.70;;;11.38;;
27489;SDS011;14925;51.026;13.752;2023-08-06T00:57:53;17.63;;;13.20;;
27489;SDS011;14925;51.026;13.752;2023-08-06T01:00:21;14.98;;;10.80;;
27489;SDS011;14925;51.026;13.752;2023-08-06T01:02:48;17.85;;;13.50;;
27489;SDS011;14925;51.026;13.752;2023-08-06T01:05:13;18.45;;;12.48;;
27489;SDS011;14925;51.026;13.752;2023-08-06T01:07:51;16.30;;;12.70;;
27489;SDS011;14925;51.026;13.752;2023-08-06T01:10:23;19.35;;;14.65;;
27489;SDS011;14925;51.026;13.752;2023-08-06T01:15:49;12.07;;;8.53;;
27489;SDS011;14925;51.026;13.752;2023-08-06T01:18:18;20.55;;;13.77;;
27489;SDS011;14925;51.026;13.752;2023-08-06T01:20:43;18.25;;;13.18;;
27489;SDS011;14925;51.026;13.752;2023-08-06T01:23:08;32.38;;;19.25;;
27489;SDS011;14925;51.026;13.752;2023-08-06T01:25:35;18.35;;;13.57;;
27489;SDS011;14925;51.026;13.752;2023-08-06T01:28:09;20.25;;;13.18;;
27489;SDS011;14925;51.026;13.752;2023-08-06T01:30:38;15.25;;;13.50;;
27489;SDS011;14925;51.026;13.752;2023-08-06T01:33:06;16.60;;;12.25;;
27489;SDS011;14925;51.026;13.752;2023-08-06T01:35:35;32.85;;;18.48;;
27489;SDS011;14925;51.026;13.752;2023-08-06T01:38:00;17.55;;;12.95;;
27489;SDS011;14925;51.026;13.752;2023-08-06T01:40:26;15.45;;;12.07;;
27489;SDS011;14925;51.026;13.752;2023-08-06T01:42:53;23.55;;;16.02;;
27489;SDS011;14925;51.026;13.752;2023-08-06T01:45:18;17.70;;;15.10;;
27489;SDS011;14925;51.026;13.752;2023-08-06T01:47:44;24.58;;;14.73;;
27489;SDS011;14925;51.026;13.752;2023-08-06T01:50:09;18.20;;;13.82;;
27489;SDS011;14925;51.026;13.752;2023-08-06T01:52:34;19.52;;;14.75;;
27489;SDS011;14925;51.026;13.752;2023-08-06T01:55:00;30.70;;;20.52;;
27489;SDS011;14925;51.026;13.752;2023-08-06T01:57:25;20.88;;;16.73;;
27489;SDS011;14925;51.026;13.752;2023-08-06T01:59:51;25.42;;;17.70;;
27489;SDS011;14925;51.026;13.752;2023-08-06T02:02:16;21.73;;;15.90;;
27489;SDS011;14925;51.026;13.752;2023-08-06T02:04:41;17.63;;;13.38;;
27489;SDS011;14925;51.026;13.752;2023-08-06T02:07:07;17.67;;;13.90;;
27489;SDS011;14925;51.026;13.752;2023-08-06T02:09:32;17.42;;;14.52;;
27489;SDS011;14925;51.026;13.752;2023-08-06T02:11:57;23.70;;;16.55;;
27489;SDS011;14925;51.026;13.752;2023-08-06T02:14:23;15.82;;;14.15;;
27489;SDS011;14925;51.026;13.752;2023-08-06T02:16:48;16.35;;;13.63;;
27489;SDS011;14925;51.026;13.752;2023-08-06T02:19:14;16.95;;;12.77;;
27489;SDS011;14925;51.026;13.752;2023-08-06T02:21:40;15.15;;;12.60;;
27489;SDS011;14925;51.026;13.752;2023-08-06T02:24:05;18.45;;;15.25;;
27489;SDS011;14925;51.026;13.752;2023-08-06T02:26:30;23.27;;;15.13;;
27489;SDS011;14925;51.026;13.752;2023-08-06T02:28:56;24.75;;;17.27;;
27489;SDS011;14925;51.026;13.752;2023-08-06T02:31:21;21.95;;;16.83;;
27489;SDS011;14925;51.026;13.752;2023-08-06T02:33:47;20.25;;;15.43;;
27489;SDS011;14925;51.026;13.752;2023-08-06T02:36:12;17.27;;;13.45;;
27489;SDS011;14925;51.026;13.752;2023-08-06T02:38:37;16.27;;;13.70;;
27489;SDS011;14925;51.026;13.752;2023-08-06T02:41:03;39.60;;;22.02;;
27489;SDS011;14925;51.026;13.752;2023-08-06T02:43:29;18.73;;;15.50;;
27489;SDS011;14925;51.026;13.752;2023-08-06T02:45:58;25.92;;;14.75;;
27489;SDS011;14925;51.026;13.752;2023-08-06T02:48:24;28.50;;;19.75;;
27489;SDS011;14925;51.026;13.752;2023-08-06T02:50:49;21.90;;;15.73;;
27489;SDS011;14925;51.026;13.752;2023-08-06T02:53:15;14.10;;;12.65;;
27489;SDS011;14925;51.026;13.752;2023-08-06T02:55:45;23.38;;;15.25;;
27489;SDS011;14925;51.026;13.752;2023-08-06T02:58:12;22.58;;;15.70;;
27489;SDS011;14925;51.026;13.752;2023-08-06T03:00:37;20.95;;;14.57;;
27489;SDS011;14925;51.026;13.752;2023-08-06T03:03:03;18.30;;;14.90;;
27489;SDS011;14925;51.026;13.752;2023-08-06T03:05:31;26.25;;;16.70;;
27489;SDS011;14925;51.026;13.752;2023-08-06T03:07:56;22.73;;;17.13;;
27489;SDS011;14925;51.026;13.752;2023-08-06T03:10:21;16.52;;;13.05;;
27489;SDS011;14925;51.026;13.752;2023-08-06T03:12:47;25.33;;;17.38;;
27489;SDS011;14925;51.026;13.752;2023-08-06T03:15:12;15.48;;;12.63;;
27489;SDS011;14925;51.026;13.752;2023-08-06T03:17:38;11.95;;;10.40;;
27489;SDS011;14925;51.026;13.752;2023-08-06T03:20:03;42.55;;;22.13;;
27489;SDS011;14925;51.026;13.752;2023-08-06T03:22:29;16.13;;;11.13;;
27489;SDS011;14925;51.026;13.752;2023-08-06T03:24:55;15.85;;;11.75;;
27489;SDS011;14925;51.026;13.752;2023-08-06T03:27:20;23.15;;;15.80;;
27489;SDS011;14925;51.026;13.752;2023-08-06T03:29:48;16.88;;;13.98;;
27489;SDS011;14925;51.026;13.752;2023-08-06T03:32:14;14.65;;;10.63;;
27489;SDS011;14925;51.026;13.752;2023-08-06T03:34:39;15.77;;;12.43;;
27489;SDS011;14925;51.026;13.752;2023-08-06T03:37:05;23.05;;;16.45;;
27489;SDS011;14925;51.026;13.752;2023-08-06T03:39:32;14.82;;;13.02;;
27489;SDS011;14925;51.026;13.752;2023-08-06T03:41:57;22.10;;;15.68;;
27489;SDS011;14925;51.026;13.752;2023-08-06T03:44:22;33.85;;;18.85;;
27489;SDS011;14925;51.026;13.752;2023-08-06T03:46:48;19.65;;;14.43;;
27489;SDS011;14925;51.026;13.752;2023-08-06T03:49:13;16.20;;;13.02;;
27489;SDS011;14925;51.026;13.752;2023-08-06T03:51:38;20.85;;;14.70;;
27489;SDS011;14925;51.026;13.752;2023-08-06T03:54:04;21.83;;;16.48;;
27489;SDS011;14925;51.026;13.752;2023-08-06T03:56:29;18.17;;;13.38;;
27489;SDS011;14925;51.026;13.752;2023-08-06T03:58:55;13.38;;;11.98;;
27489;SDS011;14925;51.026;13.752;2023-08-06T04:01:20;21.90;;;14.68;;
27489;SDS011;14925;51.026;13.752;2023-08-06T04:03:45;21.90;;;16.08;;
27489;SDS011;14925;51.026;13.752;2023-08-06T04:06:11;22.55;;;16.27;;
27489;SDS011;14925;51.026;13.752;2023-08-06T04:08:36;14.60;;;12.20;;
27489;SDS011;14925;51.026;13.752;2023-08-06T04:11:01;14.13;;;11.88;;
27489;SDS011;14925;51.026;13.752;2023-08-06T04:13:27;17.58;;;13.55;;
27489;SDS011;14925;51.026;13.752;2023-08-06T04:15:52;20.73;;;14.85;;
27489;SDS011;14925;51.026;13.752;2023-08-06T04:18:18;12.95;;;11.18;;
27489;SDS011;14925;51.026;13.752;2023-08-06T04:20:44;19.08;;;14.30;;
27489;SDS011;14925;51.026;13.752;2023-08-06T04:23:14;15.68;;;11.88;;
27489;SDS011;14925;51.026;13.752;2023-08-06T04:25:39;13.07;;;11.43;;
27489;SDS011;14925;51.026;13.752;2023-08-06T04:28:05;18.75;;;12.50;;
27489;SDS011;14925;51.026;13.752;2023-08-06T04:30:30;16.13;;;12.52;;
27489;SDS011;14925;51.026;13.752;2023-08-06T04:32:56;13.40;;;11.32;;
27489;SDS011;14925;51.026;13.752;2023-08-06T04:35:23;15.25;;;11.43;;
27489;SDS011;14925;51.026;13.752;2023-08-06T04:37:48;13.93;;;12.45;;
27489;SDS011;14925;51.026;13.752;2023-08-06T04:40:14;14.93;;;12.77;;
27489;SDS011;14925;51.026;13.752;2023-08-06T04:42:39;15.10;;;12.57;;
27489;SDS011;14925;51.026;13.752;2023-08-06T04:45:05;10.18;;;9.13;;
27489;SDS011;14925;51.026;13.752;2023-08-06T04:47:30;8.52;;;7.70;;
27489;SDS011;14925;51.026;13.752;2023-08-06T04:49:56;13.35;;;10.75;;
27489;SDS011;14925;51.026;13.752;2023-08-06T04:52:21;10.00;;;8.52;;
27489;SDS011;14925;51.026;13.752;2023-08-06T04:54:46;11.00;;;8.85;;
27489;SDS011;14925;51.026;13.752;2023-08-06T04:57:12;10.90;;;8.30;;
27489;SDS011;14925;51.026;13.752;2023-08-06T04:59:38;14.38;;;11.07;;
27489;SDS011;14925;51.026;13.752;2023-08-06T05:02:04;17.55;;;13.57;;
27489;SDS011;14925;51.026;13.752;2023-08-06T05:04:29;12.13;;;9.38;;
27489;SDS011;14925;51.026;13.752;2023-08-06T05:06:55;14.77;;;10.50;;
27489;SDS011;14925;51.026;13.752;2023-08-06T05:09:20;23.17;;;14.77;;
27489;SDS011;14925;51.026;13.752;2023-08-06T05:11:49;13.48;;;10.68;;
27489;SDS011;14925;51.026;13.752;2023-08-06T05:14:14;11.10;;;9.90;;
27489;SDS011;14925;51.026;13.752;2023-08-06T05:16:39;9.32;;;8.50;;
27489;SDS011;14925;51.026;13.752;2023-08-06T05:19:05;12.98;;;9.70;;
27489;SDS011;14925;51.026;13.752;2023-08-06T05:21:30;13.68;;;10.77;;
27489;SDS011;14925;51.026;13.752;2023-08-06T05:23:55;10.00;;;8.85;;
27489;SDS011;14925;51.026;13.752;2023-08-06T05:26:21;12.10;;;10.73;;
27489;SDS011;14925;51.026;13.752;2023-08-06T05:28:46;16.98;;;11.18;;
27489;SDS011;14925;51.026;13.752;2023-08-06T05:31:12;13.07;;;11.02;;
27489;SDS011;14925;51.026;13.752;2023-08-06T05:33:37;20.92;;;15.32;;
27489;SDS011;14925;51.026;13.752;2023-08-06T05:36:03;13.05;;;11.70;;
27489;SDS011;14925;51.026;13.752;2023-08-06T05:38:29;11.65;;;10.38;;
27489;SDS011;14925;51.026;13.752;2023-08-06T05:40:55;15.60;;;13.00;;
27489;SDS011;14925;51.026;13.752;2023-08-06T05:43:21;17.50;;;14.82;;
27489;SDS011;14925;51.026;13.752;2023-08-06T05:45:46;27.15;;;18.30;;
27489;SDS011;14925;51.026;13.752;2023-08-06T05:48:14;17.70;;;13.93;;
27489;SDS011;14925;51.026;13.752;2023-08-06T05:50:39;15.10;;;12.35;;
27489;SDS011;14925;51.026;13.752;2023-08-06T05:53:05;10.27;;;9.27;;
27489;SDS011;14925;51.026;13.752;2023-08-06T05:55:30;14.88;;;12.65;;
27489;SDS011;14925;51.026;13.752;2023-08-06T05:57:57;50.35;;;23.55;;
27489;SDS011;14925;51.026;13.752;2023-08-06T06:00:22;15.45;;;13.57;;
27489;SDS011;14925;51.026;13.752;2023-08-06T06:02:48;13.68;;;12.27;;
27489;SDS011;14925;51.026;13.752;2023-08-06T06:05:13;21.83;;;17.85;;
27489;SDS011;14925;51.026;13.752;2023-08-06T06:07:38;20.20;;;16.85;;
27489;SDS011;14925;51.026;13.752;2023-08-06T06:10:04;23.63;;;17.40;;
27489;SDS011;14925;51.026;13.752;2023-08-06T06:12:30;21.17;;;15.77;;
27489;SDS011;14925;51.026;13.752;2023-08-06T06:14:55;29.73;;;19.27;;
27489;SDS011;14925;51.026;13.752;2023-08-06T06:17:21;20.10;;;14.43;;
27489;SDS011;14925;51.026;13.752;2023-08-06T06:19:46;21.98;;;17.25;;
27489;SDS011;14925;51.026;13.752;2023-08-06T06:22:12;20.65;;;16.52;;
27489;SDS011;14925;51.026;13.752;2023-08-06T06:24:37;16.83;;;14.23;;
27489;SDS011;14925;51.026;13.752;2023-08-06T06:27:03;17.27;;;15.30;;
27489;SDS011;14925;51.026;13.752;2023-08-06T06:29:28;20.60;;;16.55;;
27489;SDS011;14925;51.026;13.752;2023-08-06T06:31:54;22.60;;;16.05;;
27489;SDS011;14925;51.026;13.752;2023-08-06T06:34:22;20.45;;;16.55;;
27489;SDS011;14925;51.026;13.752;2023-08-06T06:36:47;16.85;;;14.40;;
27489;SDS011;14925;51.026;13.752;2023-08-06T06:39:13;18.45;;;15.07;;
27489;SDS011;14925;51.026;13.752;2023-08-06T06:41:38;12.23;;;9.68;;
27489;SDS011;14925;51.026;13.752;2023-08-06T06:44:04;12.00;;;9.35;;
27489;SDS011;14925;51.026;13.752;2023-08-06T06:46:30;12.00;;;9.38;;
27489;SDS011;14925;51.026;13.752;2023-08-06T06:48:55;12.30;;;10.07;;
27489;SDS011;14925;51.026;13.752;2023-08-06T06:51:21;13.00;;;10.05;;
27489;SDS011;14925;51.026;13.752;2023-08-06T06:53:46;9.35;;;8.45;;
27489;SDS011;14925;51.026;13.752;2023-08-06T06:56:11;10.50;;;9.43;;
27489;SDS011;14925;51.026;13.752;2023-08-06T06:58:37;8.60;;;7.80;;
27489;SDS011;14925;51.026;13.752;2023-08-06T07:01:04;14.10;;;11.20;;
27489;SDS011;14925;51.026;13.752;2023-08-06T07:03:29;9.95;;;7.85;;
27489;SDS011;14925;51.026;13.752;2023-08-06T07:05:58;12.38;;;8.60;;
27489;SDS011;14925;51.026;13.752;2023-08-06T07:08:27;11.85;;;8.68;;
27489;SDS011;14925;51.026;13.752;2023-08-06T07:10:59;14.38;;;10.40;;
27489;SDS011;14925;51.026;13.752;2023-08-06T07:13:28;10.90;;;7.60;;
27489;SDS011;14925;51.026;13.752;2023-08-06T07:15:54;11.32;;;9.73;;
27489;SDS011;14925;51.026;13.752;2023-08-06T07:18:20;10.23;;;8.82;;
27489;SDS011;14925;51.026;13.752;2023-08-06T07:20:52;14.85;;;10.55;;
27489;SDS011;14925;51.026;13.752;2023-08-06T07:23:19;11.02;;;9.77;;
27489;SDS011;14925;51.026;13.752;2023-08-06T07:25:46;13.10;;;10.68;;
27489;SDS011;14925;51.026;13.752;2023-08-06T07:28:12;18.52;;;13.05;;
27489;SDS011;14925;51.026;13.752;2023-08-06T07:30:38;15.70;;;11.40;;
27489;SDS011;14925;51.026;13.752;2023-08-06T07:33:04;14.18;;;9.13;;
27489;SDS011;14925;51.026;13.752;2023-08-06T07:35:29;13.15;;;11.25;;
27489;SDS011;14925;51.026;13.752;2023-08-06T07:37:55;10.85;;;9.75;;
27489;SDS011;14925;51.026;13.752;2023-08-06T07:40:20;10.40;;;7.47;;
27489;SDS011;14925;51.026;13.752;2023-08-06T07:42:47;11.45;;;8.80;;
27489;SDS011;14925;51.026;13.752;2023-08-06T07:45:12;9.43;;;7.10;;
27489;SDS011;14925;51.026;13.752;2023-08-06T07:47:38;8.18;;;6.35;;
27489;SDS011;14925;51.026;13.752;2023-08-06T07:50:04;8.70;;;7.13;;
27489;SDS011;14925;51.026;13.752;2023-08-06T07:52:30;8.90;;;7.07;;
27489;SDS011;14925;51.026;13.752;2023-08-06T07:54:55;10.40;;;7.22;;
27489;SDS011;14925;51.026;13.752;2023-08-06T07:57:20;7.05;;;6.35;;
27489;SDS011;14925;51.026;13.752;2023-08-06T07:59:46;8.85;;;7.95;;
27489;SDS011;14925;51.026;13.752;2023-08-06T08:02:11;9.43;;;6.82;;
27489;SDS011;14925;51.026;13.752;2023-08-06T08:04:36;10.13;;;7.22;;
27489;SDS011;14925;51.026;13.752;2023-08-06T08:07:18;8.52;;;6.20;;
27489;SDS011;14925;51.026;13.752;2023-08-06T08:09:43;7.03;;;5.97;;
27489;SDS011;14925;51.026;13.752;2023-08-06T08:12:08;9.57;;;6.13;;
27489;SDS011;14925;51.026;13.752;2023-08-06T08:14:34;6.90;;;6.20;;
27489;SDS011;14925;51.026;13.752;2023-08-06T08:17:01;8.82;;;5.32;;
27489;SDS011;14925;51.026;13.752;2023-08-06T08:19:27;13.07;;;10.38;;
27489;SDS011;14925;51.026;13.752;2023-08-06T08:21:53;6.07;;;4.72;;
27489;SDS011;14925;51.026;13.752;2023-08-06T08:24:19;6.35;;;4.75;;
27489;SDS011;14925;51.026;13.752;2023-08-06T08:26:45;5.32;;;4.82;;
27489;SDS011;14925;51.026;13.752;2023-08-06T08:29:10;8.73;;;6.72;;
27489;SDS011;14925;51.026;13.752;2023-08-06T08:31:35;5.35;;;4.03;;
27489;SDS011;14925;51.026;13.752;2023-08-06T08:34:04;5.28;;;4.75;;
27489;SDS011;14925;51.026;13.752;2023-08-06T08:36:30;5.30;;;4.75;;
27489;SDS011;14925;51.026;13.752;2023-08-06T08:38:55;7.82;;;5.20;;
27489;SDS011;14925;51.026;13.752;2023-08-06T08:41:21;7.70;;;5.07;;
27489;SDS011;14925;51.026;13.752;2023-08-06T08:43:47;6.75;;;4.65;;
27489;SDS011;14925;51.026;13.752;2023-08-06T08:46:16;6.28;;;4.32;;
27489;SDS011;14925;51.026;13.752;2023-08-06T08:48:43;4.75;;;3.70;;
27489;SDS011;14925;51.026;13.752;2023-08-06T08:51:09;8.00;;;4.40;;
27489;SDS011;14925;51.026;13.752;2023-08-06T08:53:35;6.47;;;3.92;;
27489;SDS011;14925;51.026;13.752;2023-08-06T08:56:04;4.57;;;3.50;;
27489;SDS011;14925;51.026;13.752;2023-08-06T08:58:30;4.40;;;4.10;;
27489;SDS011;14925;51.026;13.752;2023-08-06T09:00:55;4.45;;;3.05;;
27489;SDS011;14925;51.026;13.752;2023-08-06T09:03:21;5.35;;;4.20;;
27489;SDS011;14925;51.026;13.752;2023-08-06T09:05:47;5.70;;;4.00;;
27489;SDS011;14925;51.026;13.752;2023-08-06T09:08:15;3.38;;;3.08;;
27489;SDS011;14925;51.026;13.752;2023-08-06T09:10:43;5.07;;;4.57;;
27489;SDS011;14925;51.026;13.752;2023-08-06T09:13:09;5.72;;;3.70;;
27489;SDS011;14925;51.026;13.752;2023-08-06T09:15:37;6.70;;;4.85;;
27489;SDS011;14925;51.026;13.752;2023-08-06T09:18:08;4.93;;;2.78;;
27489;SDS011;14925;51.026;13.752;2023-08-06T09:20:35;3.50;;;3.20;;
27489;SDS011;14925;51.026;13.752;2023-08-06T09:23:09;4.90;;;4.45;;
27489;SDS011;14925;51.026;13.752;2023-08-06T09:25:36;5.55;;;5.03;;
27489;SDS011;14925;51.026;13.752;2023-08-06T09:28:04;5.32;;;4.75;;
27489;SDS011;14925;51.026;13.752;2023-08-06T09:30:33;5.38;;;4.00;;
27489;SDS011;14925;51.026;13.752;2023-08-06T09:33:01;5.80;;;4.18;;
27489;SDS011;14925;51.026;13.752;2023-08-06T09:35:30;5.65;;;5.00;;
27489;SDS011;14925;51.026;13.752;2023-08-06T09:38:17;7.97;;;5.95;;
27489;SDS011;14925;51.026;13.752;2023-08-06T09:40:42;7.68;;;5.32;;
27489;SDS011;14925;51.026;13.752;2023-08-06T09:43:07;8.15;;;4.60;;
27489;SDS011;14925;51.026;13.752;2023-08-06T09:45:33;6.72;;;5.78;;
27489;SDS011;14925;51.026;13.752;2023-08-06T09:48:02;11.52;;;7.95;;
27489;SDS011;14925;51.026;13.752;2023-08-06T09:50:32;7.13;;;5.20;;
27489;SDS011;14925;51.026;13.752;2023-08-06T09:53:00;5.40;;;4.80;;
27489;SDS011;14925;51.026;13.752;2023-08-06T09:55:31;6.93;;;4.97;;
27489;SDS011;14925;51.026;13.752;2023-08-06T09:57:58;8.77;;;6.40;;
27489;SDS011;14925;51.026;13.752;2023-08-06T10:00:23;7.72;;;5.43;;
27489;SDS011;14925;51.026;13.752;2023-08-06T10:02:49;5.97;;;4.90;;
27489;SDS011;14925;51.026;13.752;2023-08-06T10:05:18;4.28;;;3.88;;
27489;SDS011;14925;51.026;13.752;2023-08-06T10:07:44;7.20;;;4.55;;
27489;SDS011;14925;51.026;13.752;2023-08-06T10:10:10;4.30;;;3.90;;
27489;SDS011;14925;51.026;13.752;2023-08-06T10:12:37;4.65;;;4.13;;
27489;SDS011;14925;51.026;13.752;2023-08-06T10:15:07;5.32;;;4.32;;
27489;SDS011;14925;51.026;13.752;2023-08-06T10:17:35;6.70;;;5.38;;
27489;SDS011;14925;51.026;13.752;2023-08-06T10:20:03;4.72;;;4.18;;
27489;SDS011;14925;51.026;13.752;2023-08-06T10:22:31;5.25;;;4.40;;
27489;SDS011;14925;51.026;13.752;2023-08-06T10:24:58;6.55;;;5.78;;
27489;SDS011;14925;51.026;13.752;2023-08-06T10:27:30;7.68;;;6.90;;
27489;SDS011;14925;51.026;13.752;2023-08-06T10:30:41;5.55;;;5.05;;
27489;SDS011;14925;51.026;13.752;2023-08-06T10:32:49;6.85;;;6.15;;
27489;SDS011;14925;51.026;13.752;2023-08-06T10:38:14;6.20;;;4.57;;
27489;SDS011;14925;51.026;13.752;2023-08-06T10:40:48;4.78;;;4.13;;
27489;SDS011;14925;51.026;13.752;2023-08-06T10:45:54;9.55;;;5.78;;
27489;SDS011;14925;51.026;13.752;2023-08-06T10:50:56;6.38;;;4.20;;
27489;SDS011;14925;51.026;13.752;2023-08-06T10:53:22;4.65;;;3.75;;
27489;SDS011;14925;51.026;13.752;2023-08-06T10:55:47;4.30;;;3.40;;
27489;SDS011;14925;51.026;13.752;2023-08-06T10:58:15;5.30;;;3.28;;
27489;SDS011;14925;51.026;13.752;2023-08-06T11:00:41;4.20;;;3.08;;
27489;SDS011;14925;51.026;13.752;2023-08-06T11:03:07;4.25;;;3.20;;
27489;SDS011;14925;51.026;13.752;2023-08-06T11:05:33;5.18;;;3.35;;
27489;SDS011;14925;51.026;13.752;2023-08-06T11:07:58;4.47;;;3.03;;
27489;SDS011;14925;51.026;13.752;2023-08-06T11:10:24;6.00;;;3.45;;
27489;SDS011;14925;51.026;13.752;2023-08-06T11:12:49;4.20;;;3.80;;
27489;SDS011;14925;51.026;13.752;2023-08-06T11:15:14;4.75;;;3.72;;
27489;SDS011;14925;51.026;13.752;2023-08-06T11:17:43;3.85;;;3.45;;
27489;SDS011;14925;51.026;13.752;2023-08-06T11:20:08;5.00;;;4.40;;
27489;SDS011;14925;51.026;13.752;2023-08-06T11:22:35;6.35;;;3.72;;
27489;SDS011;14925;51.026;13.752;2023-08-06T11:25:01;3.80;;;3.47;;
27489;SDS011;14925;51.026;13.752;2023-08-06T11:27:27;3.53;;;3.20;;
27489;SDS011;14925;51.026;13.752;2023-08-06T11:29:55;4.90;;;3.40;;
27489;SDS011;14925;51.026;13.752;2023-08-06T11:32:21;4.43;;;2.80;;
27489;SDS011;14925;51.026;13.752;2023-08-06T11:34:46;3.97;;;3.42;;
27489;SDS011;14925;51.026;13.752;2023-08-06T11:37:11;6.18;;;3.70;;
27489;SDS011;14925;51.026;13.752;2023-08-06T11:39:37;4.60;;;4.15;;
27489;SDS011;14925;51.026;13.752;2023-08-06T11:42:04;5.85;;;3.17;;
27489;SDS011;14925;51.026;13.752;2023-08-06T11:44:30;5.85;;;3.90;;
27489;SDS011;14925;51.026;13.752;2023-08-06T11:46:59;5.25;;;3.55;;
27489;SDS011;14925;51.026;13.752;2023-08-06T11:49:39;4.40;;;3.25;;
27489;SDS011;14925;51.026;13.752;2023-08-06T11:52:16;3.70;;;3.33;;
27489;SDS011;14925;51.026;13.752;2023-08-06T11:54:46;4.70;;;2.90;;
27489;SDS011;14925;51.026;13.752;2023-08-06T11:57:25;5.03;;;3.20;;
27489;SDS011;14925;51.026;13.752;2023-08-06T11:59:50;5.15;;;4.32;;
27489;SDS011;14925;51.026;13.752;2023-08-06T12:02:18;4.18;;;3.20;;
27489;SDS011;14925;51.026;13.752;2023-08-06T12:05:01;3.90;;;3.60;;
27489;SDS011;14925;51.026;13.752;2023-08-06T12:07:35;3.50;;;3.20;;
27489;SDS011;14925;51.026;13.752;2023-08-06T12:10:05;5.13;;;4.28;;
27489;SDS011;14925;51.026;13.752;2023-08-06T12:12:31;6.47;;;3.92;;
27489;SDS011;14925;51.026;13.752;2023-08-06T12:14:56;6.97;;;4.18;;
27489;SDS011;14925;51.026;13.752;2023-08-06T12:17:22;4.82;;;3.15;;
27489;SDS011;14925;51.026;13.752;2023-08-06T12:19:49;5.38;;;3.80;;
27489;SDS011;14925;51.026;13.752;2023-08-06T12:22:17;4.97;;;3.45;;
27489;SDS011;14925;51.026;13.752;2023-08-06T12:24:43;6.00;;;3.70;;
27489;SDS011;14925;51.026;13.752;2023-08-06T12:27:11;4.38;;;3.97;;
27489;SDS011;14925;51.026;13.752;2023-08-06T12:29:40;3.70;;;3.40;;
27489;SDS011;14925;51.026;13.752;2023-08-06T12:32:07;5.10;;;3.83;;
27489;SDS011;14925;51.026;13.752;2023-08-06T12:34:33;3.85;;;3.10;;
27489;SDS011;14925;51.026;13.752;2023-08-06T12:36:58;3.50;;;3.13;;
27489;SDS011;14925;51.026;13.752;2023-08-06T12:39:23;8.40;;;4.57;;
27489;SDS011;14925;51.026;13.752;2023-08-06T12:41:49;3.88;;;3.42;;
27489;SDS011;14925;51.026;13.752;2023-08-06T12:44:14;6.03;;;4.15;;
27489;SDS011;14925;51.026;13.752;2023-08-06T12:46:43;4.93;;;4.43;;
27489;SDS011;14925;51.026;13.752;2023-08-06T12:49:08;5.03;;;3.75;;
27489;SDS011;14925;51.026;13.752;2023-08-06T12:51:33;3.70;;;3.40;;
27489;SDS011;14925;51.026;13.752;2023-08-06T12:53:59;3.75;;;2.80;;
27489;SDS011;14925;51.026;13.752;2023-08-06T12:56:25;6.70;;;3.53;;
27489;SDS011;14925;51.026;13.752;2023-08-06T12:58:50;4.03;;;3.20;;
27489;SDS011;14925;51.026;13.752;2023-08-06T13:01:16;6.13;;;3.00;;
27489;SDS011;14925;51.026;13.752;2023-08-06T13:03:41;3.42;;;2.85;;
27489;SDS011;14925;51.026;13.752;2023-08-06T13:06:07;5.50;;;4.20;;
27489;SDS011;14925;51.026;13.752;2023-08-06T13:08:34;4.68;;;4.18;;
27489;SDS011;14925;51.026;13.752;2023-08-06T13:11:00;4.47;;;3.70;;
27489;SDS011;14925;51.026;13.752;2023-08-06T13:13:31;4.32;;;3.92;;
27489;SDS011;14925;51.026;13.752;2023-08-06T13:15:56;3.78;;;3.47;;
27489;SDS011;14925;51.026;13.752;2023-08-06T13:18:22;3.42;;;2.90;;
27489;SDS011;14925;51.026;13.752;2023-08-06T13:20:47;3.45;;;3.05;;
27489;SDS011;14925;51.026;13.752;2023-08-06T13:23:14;3.20;;;2.88;;
27489;SDS011;14925;51.026;13.752;2023-08-06T13:25:41;2.70;;;2.30;;
27489;SDS011;14925;51.026;13.752;2023-08-06T13:28:07;4.15;;;2.22;;
27489;SDS011;14925;51.026;13.752;2023-08-06T13:30:33;4.90;;;2.35;;
27489;SDS011;14925;51.026;13.752;2023-08-06T13:33:00;2.80;;;2.50;;
27489;SDS011;14925;51.026;13.752;2023-08-06T13:35:26;3.15;;;2.40;;
27489;SDS011;14925;51.026;13.752;2023-08-06T13:37:51;4.75;;;2.75;;
27489;SDS011;14925;51.026;13.752;2023-08-06T13:40:17;2.28;;;2.08;;
27489;SDS011;14925;51.026;13.752;2023-08-06T13:42:43;3.85;;;2.50;;
27489;SDS011;14925;51.026;13.752;2023-08-06T13:45:08;5.25;;;2.45;;
27489;SDS011;14925;51.026;13.752;2023-08-06T13:47:34;2.33;;;1.80;;
27489;SDS011;14925;51.026;13.752;2023-08-06T13:49:59;6.20;;;2.35;;
27489;SDS011;14925;51.026;13.752;2023-08-06T13:52:25;1.98;;;1.88;;
27489;SDS011;14925;51.026;13.752;2023-08-06T13:54:51;5.22;;;2.20;;
27489;SDS011;14925;51.026;13.752;2023-08-06T13:57:16;2.20;;;2.00;;
27489;SDS011;14925;51.026;13.752;2023-08-06T13:59:42;2.30;;;1.92;;
27489;SDS011;14925;51.026;13.752;2023-08-06T14:02:08;3.47;;;2.10;;
27489;SDS011;14925;51.026;13.752;2023-08-06T14:04:34;2.60;;;1.90;;
27489;SDS011;14925;51.026;13.752;2023-08-06T14:06:59;2.33;;;1.83;;
27489;SDS011;14925;51.026;13.752;2023-08-06T14:09:24;3.90;;;2.22;;
27489;SDS011;14925;51.026;13.752;2023-08-06T14:11:50;2.83;;;2.20;;
27489;SDS011;14925;51.026;13.752;2023-08-06T14:14:15;6.00;;;2.15;;
27489;SDS011;14925;51.026;13.752;2023-08-06T14:16:41;4.30;;;2.38;;
27489;SDS011;14925;51.026;13.752;2023-08-06T14:19:06;2.30;;;2.10;;
27489;SDS011;14925;51.026;13.752;2023-08-06T14:21:31;2.95;;;2.30;;
27489;SDS011;14925;51.026;13.752;2023-08-06T14:23:57;3.33;;;1.92;;
27489;SDS011;14925;51.026;13.752;2023-08-06T14:26:25;4.00;;;2.25;;
27489;SDS011;14925;51.026;13.752;2023-08-06T14:28:50;3.35;;;2.72;;